Time;durP1;ratioP1;P1;durP2;ratioP2;P2;SDS_P1;SDS_P2;PMS_P1;PMS_P2;Temp;Humidity;BMP_temperature;BMP_pressure;BME280_temperature;BME280_humidity;BME280_pressure;Samples;Min_cycle;Max_cycle;Signal;HPM_P1;HPM_P2
2023/06/02 00:01:31;;;;;;;;;;;10.80;85.00;;;;;;5015330;28;19952;-73
2023/06/02 00:04:01;;;;;;;;;;;10.80;85.30;;;;;;5021925;28;20573;-73
2023/06/02 00:06:33;;;;;;;;;;;10.70;85.60;;;;;;5019329;28;20382;-73
2023/06/02 00:09:04;;;;;;;;;;;10.70;85.80;;;;;;5025316;28;19984;-73
2023/06/02 00:11:35;;;;;;;;;;;10.70;85.90;;;;;;5019121;28;20132;-73
2023/06/02 00:14:03;;;;;;;;;;;10.70;85.80;;;;;;5011296;28;19988;-73
2023/06/02 00:16:32;;;;;;;;;;;10.70;85.70;;;;;;5018934;28;19933;-73
2023/06/02 00:18:59;;;;;;;;;;;10.70;85.90;;;;;;5008566;28;19980;-73
2023/06/02 00:21:26;;;;;;;;;;;10.60;85.70;;;;;;5019255;28;20007;-73
2023/06/02 00:23:53;;;;;;;;;;;10.50;86.30;;;;;;5013787;28;20007;-73
2023/06/02 00:26:20;;;;;;;;;;;10.50;86.70;;;;;;5011662;28;20431;-73
2023/06/02 00:28:47;;;;;;;;;;;10.40;86.90;;;;;;5018955;28;19968;-73
2023/06/02 00:31:14;;;;;;;;;;;10.40;87.00;;;;;;5013687;28;19929;-73
2023/06/02 00:33:41;;;;;;;;;;;10.40;87.10;;;;;;5016522;28;19936;-73
2023/06/02 00:36:08;;;;;;;;;;;10.40;86.90;;;;;;5035127;28;19964;-73
2023/06/02 00:38:35;;;;;;;;;;;10.30;86.70;;;;;;5023020;28;19936;-73
2023/06/02 00:41:02;;;;;;;;;;;10.30;86.70;;;;;;5017886;28;20432;-73
2023/06/02 00:43:29;;;;;;;;;;;10.20;86.80;;;;;;5023161;28;19943;-73
2023/06/02 00:45:55;;;;;;;;;;;10.20;86.60;;;;;;5021761;28;19956;-74
2023/06/02 00:48:22;;;;;;;;;;;10.10;86.40;;;;;;5013027;28;20528;-73
2023/06/02 00:50:49;;;;;;;;;;;10.00;86.50;;;;;;5037410;28;19972;-73
2023/06/02 00:53:16;;;;;;;;;;;9.90;87.10;;;;;;5018779;28;19964;-73
2023/06/02 00:55:44;;;;;;;;;;;9.90;87.30;;;;;;5026827;28;19930;-73
2023/06/02 00:58:13;;;;;;;;;;;9.80;87.40;;;;;;5018913;28;20064;-73
2023/06/02 01:00:43;;;;;;;;;;;9.80;87.50;;;;;;5030610;28;19936;-73
2023/06/02 01:03:13;;;;;;;;;;;9.80;87.90;;;;;;5022982;28;19929;-73
2023/06/02 01:05:43;;;;;;;;;;;9.80;88.40;;;;;;5013281;28;20041;-73
2023/06/02 01:08:11;;;;;;;;;;;9.70;88.30;;;;;;5024426;28;20364;-73
2023/06/02 01:10:37;;;;;;;;;;;9.70;88.80;;;;;;5021775;28;19935;-73
2023/06/02 01:13:04;;;;;;;;;;;9.60;88.80;;;;;;5017992;28;19933;-73
2023/06/02 01:15:31;;;;;;;;;;;9.60;89.40;;;;;;5011258;28;19933;-73
2023/06/02 01:18:01;;;;;;;;;;;9.60;89.50;;;;;;5021839;28;19943;-73
2023/06/02 01:20:28;;;;;;;;;;;9.60;89.80;;;;;;5012591;28;19936;-73
2023/06/02 01:23:21;;;;;;;;;;;9.50;89.90;;;;;;5019486;28;19972;-73
2023/06/02 01:25:52;;;;;;;;;;;9.50;89.80;;;;;;5021055;28;19929;-73
2023/06/02 01:28:20;;;;;;;;;;;9.50;90.40;;;;;;5015877;28;19932;-73
2023/06/02 01:30:52;;;;;;;;;;;9.50;90.40;;;;;;5019882;28;20003;-73
2023/06/02 01:33:30;;;;;;;;;;;9.50;90.80;;;;;;5024201;28;19929;-73
2023/06/02 01:36:00;;;;;;;;;;;9.50;90.80;;;;;;5029839;28;20016;-73
2023/06/02 01:38:28;;;;;;;;;;;9.40;91.00;;;;;;5017174;28;19966;-73
2023/06/02 01:41:00;;;;;;;;;;;9.40;91.10;;;;;;5016856;28;19929;-76
2023/06/02 01:43:29;;;;;;;;;;;9.40;91.20;;;;;;5016999;28;20121;-77
2023/06/02 01:45:56;;;;;;;;;;;9.40;91.10;;;;;;5011175;28;20511;-76
2023/06/02 01:48:23;;;;;;;;;;;9.40;91.20;;;;;;5012987;28;20107;-76
2023/06/02 01:50:50;;;;;;;;;;;9.40;91.10;;;;;;5021714;28;19976;-76
2023/06/02 01:53:19;;;;;;;;;;;9.40;91.30;;;;;;5026914;28;19929;-77
2023/06/02 01:55:50;;;;;;;;;;;9.40;91.50;;;;;;5018531;28;19929;-77
2023/06/02 01:58:16;;;;;;;;;;;9.40;91.50;;;;;;5025216;28;19929;-77
2023/06/02 02:00:43;;;;;;;;;;;9.40;91.70;;;;;;5030652;28;19929;-77
2023/06/02 02:03:12;;;;;;;;;;;9.40;91.60;;;;;;5027501;28;19929;-77
2023/06/02 02:05:39;;;;;;;;;;;9.40;91.60;;;;;;5024565;28;19933;-77
2023/06/02 02:08:05;;;;;;;;;;;9.40;91.40;;;;;;5024046;28;19964;-76
2023/06/02 02:10:32;;;;;;;;;;;9.40;91.80;;;;;;5032082;28;19934;-78
2023/06/02 02:12:59;;;;;;;;;;;9.40;91.70;;;;;;5023448;28;20036;-77
2023/06/02 02:15:27;;;;;;;;;;;9.30;91.70;;;;;;5017071;28;19936;-77
2023/06/02 02:17:56;;;;;;;;;;;9.30;91.80;;;;;;5021185;28;19925;-76
2023/06/02 02:20:23;;;;;;;;;;;9.30;91.80;;;;;;5022889;28;20390;-77
2023/06/02 02:22:50;;;;;;;;;;;9.30;92.30;;;;;;5029428;28;20530;-77
2023/06/02 02:25:17;;;;;;;;;;;9.30;92.30;;;;;;5016587;28;19929;-76
2023/06/02 02:27:44;;;;;;;;;;;9.30;92.00;;;;;;5021519;28;20024;-77
2023/06/02 02:30:11;;;;;;;;;;;9.30;92.10;;;;;;5018250;28;19971;-76
2023/06/02 02:32:39;;;;;;;;;;;9.30;92.20;;;;;;5024293;28;19976;-77
2023/06/02 02:35:06;;;;;;;;;;;9.30;92.10;;;;;;5013493;28;19983;-76
2023/06/02 02:37:33;;;;;;;;;;;9.30;92.40;;;;;;5022820;28;19968;-76
2023/06/02 02:40:13;;;;;;;;;;;9.30;92.10;;;;;;5019095;28;19935;-76
2023/06/02 02:42:40;;;;;;;;;;;9.20;92.00;;;;;;5024467;28;20564;-76
2023/06/02 02:45:08;;;;;;;;;;;9.20;92.30;;;;;;5010924;28;19929;-76
2023/06/02 02:47:35;;;;;;;;;;;9.20;92.00;;;;;;5014359;28;20289;-76
2023/06/02 02:50:03;;;;;;;;;;;9.20;92.00;;;;;;5026737;28;19939;-76
2023/06/02 02:52:30;;;;;;;;;;;9.20;91.90;;;;;;5019631;28;19965;-76
2023/06/02 02:54:57;;;;;;;;;;;9.20;92.10;;;;;;5028158;28;19929;-76
2023/06/02 02:57:23;;;;;;;;;;;9.10;91.90;;;;;;5019379;28;19941;-76
2023/06/02 02:59:50;;;;;;;;;;;9.10;92.10;;;;;;5016291;28;19929;-77
2023/06/02 03:02:17;;;;;;;;;;;9.10;92.50;;;;;;5023966;28;19929;-77
2023/06/02 03:04:45;;;;;;;;;;;9.10;92.30;;;;;;5022783;28;19929;-76
2023/06/02 03:07:13;;;;;;;;;;;9.00;90.70;;;;;;5010215;28;19933;-76
2023/06/02 03:09:40;;;;;;;;;;;9.00;90.90;;;;;;5026280;28;19936;-77
2023/06/02 03:12:07;;;;;;;;;;;8.90;90.70;;;;;;5022159;28;19940;-76
2023/06/02 03:14:34;;;;;;;;;;;9.00;91.10;;;;;;5023900;28;19929;-77
2023/06/02 03:17:01;;;;;;;;;;;9.00;90.80;;;;;;5013824;28;19930;-76
2023/06/02 03:19:28;;;;;;;;;;;9.10;90.90;;;;;;5017982;28;19937;-76
2023/06/02 03:21:58;;;;;;;;;;;9.10;91.00;;;;;;5013565;28;19973;-76
2023/06/02 03:24:25;;;;;;;;;;;9.10;90.80;;;;;;5025154;28;20397;-73
2023/06/02 03:26:51;;;;;;;;;;;9.20;90.70;;;;;;5019916;28;19936;-73
2023/06/02 03:29:19;;;;;;;;;;;9.20;90.60;;;;;;5014621;28;19936;-73
2023/06/02 03:31:46;;;;;;;;;;;9.20;90.90;;;;;;5015141;28;19945;-73
2023/06/02 03:34:13;;;;;;;;;;;9.20;90.90;;;;;;5021090;28;20694;-73
2023/06/02 03:36:40;;;;;;;;;;;9.30;90.60;;;;;;5016971;28;19930;-73
2023/06/02 03:39:07;;;;;;;;;;;9.30;91.30;;;;;;5012668;28;20413;-73
2023/06/02 03:41:35;;;;;;;;;;;9.40;91.30;;;;;;5011031;28;19935;-73
2023/06/02 03:44:02;;;;;;;;;;;9.40;91.10;;;;;;5014398;28;19936;-73
2023/06/02 03:46:29;;;;;;;;;;;9.50;91.50;;;;;;5011886;28;20020;-73
2023/06/02 03:48:56;;;;;;;;;;;9.50;91.70;;;;;;5020599;28;19929;-73
2023/06/02 03:51:23;;;;;;;;;;;9.60;91.60;;;;;;5014037;28;19933;-73
2023/06/02 03:53:49;;;;;;;;;;;9.70;92.10;;;;;;5016540;28;20015;-73
2023/06/02 03:56:16;;;;;;;;;;;9.70;92.30;;;;;;5011700;28;20038;-73
2023/06/02 03:58:43;;;;;;;;;;;9.80;92.60;;;;;;5022962;28;20002;-73
2023/06/02 04:01:12;;;;;;;;;;;9.90;92.80;;;;;;5018962;28;20587;-73
2023/06/02 04:03:41;;;;;;;;;;;10.00;93.10;;;;;;5026451;28;19929;-73
2023/06/02 04:06:08;;;;;;;;;;;10.00;93.40;;;;;;5021688;28;20443;-73
2023/06/02 04:08:35;;;;;;;;;;;10.10;93.70;;;;;;5029100;28;20031;-74
2023/06/02 04:11:02;;;;;;;;;;;10.20;94.20;;;;;;5022891;28;19933;-73
2023/06/02 04:13:29;;;;;;;;;;;10.30;94.00;;;;;;5016185;28;20480;-73
2023/06/02 04:15:56;;;;;;;;;;;10.40;94.20;;;;;;5021410;28;20136;-73
2023/06/02 04:18:23;;;;;;;;;;;10.40;94.80;;;;;;5015821;28;20232;-73
2023/06/02 04:20:50;;;;;;;;;;;10.50;95.60;;;;;;5018862;28;19929;-73
2023/06/02 04:23:16;;;;;;;;;;;10.60;96.10;;;;;;5021949;28;19929;-73
2023/06/02 04:25:43;;;;;;;;;;;10.70;96.40;;;;;;5023479;28;19937;-73
2023/06/02 04:28:10;;;;;;;;;;;10.80;96.40;;;;;;5012723;28;20036;-73
2023/06/02 04:30:40;;;;;;;;;;;10.90;96.30;;;;;;5011768;28;20500;-73
2023/06/02 04:33:08;;;;;;;;;;;10.90;96.10;;;;;;5027239;28;19951;-73
2023/06/02 04:35:35;;;;;;;;;;;11.10;96.00;;;;;;5010517;28;19929;-74
2023/06/02 04:38:03;;;;;;;;;;;11.10;95.90;;;;;;5022923;28;19929;-73
2023/06/02 04:40:30;;;;;;;;;;;11.20;95.80;;;;;;5011901;28;20774;-73
2023/06/02 04:42:58;;;;;;;;;;;11.30;95.50;;;;;;5022193;28;20051;-73
2023/06/02 04:45:25;;;;;;;;;;;11.40;94.80;;;;;;5022598;28;19991;-73
2023/06/02 04:47:52;;;;;;;;;;;11.50;94.40;;;;;;5015743;28;19947;-73
2023/06/02 04:50:19;;;;;;;;;;;11.60;93.40;;;;;;5022062;28;19933;-73
2023/06/02 04:52:46;;;;;;;;;;;11.60;91.90;;;;;;5015692;28;19929;-73
2023/06/02 04:55:13;;;;;;;;;;;11.80;91.50;;;;;;5015264;28;20412;-73
2023/06/02 04:57:40;;;;;;;;;;;11.80;90.50;;;;;;5014605;28;19995;-74
2023/06/02 05:00:08;;;;;;;;;;;11.90;89.30;;;;;;5025587;28;19930;-73
2023/06/02 05:02:35;;;;;;;;;;;11.90;87.30;;;;;;5024252;28;20007;-73
2023/06/02 05:05:02;;;;;;;;;;;12.00;86.80;;;;;;5011584;28;20016;-74
2023/06/02 05:07:29;;;;;;;;;;;12.10;85.80;;;;;;5010669;28;20012;-73
2023/06/02 05:09:56;;;;;;;;;;;12.20;85.50;;;;;;5035481;28;19933;-78
2023/06/02 05:12:24;;;;;;;;;;;12.20;85.20;;;;;;5016406;28;20680;-72
2023/06/02 05:14:51;;;;;;;;;;;12.30;84.50;;;;;;5023944;28;20255;-74
2023/06/02 05:17:22;;;;;;;;;;;12.30;83.40;;;;;;5015462;28;19929;-76
2023/06/02 05:19:53;;;;;;;;;;;12.30;83.00;;;;;;5020019;28;19929;-74
2023/06/02 05:22:21;;;;;;;;;;;12.40;82.30;;;;;;5013534;28;19936;-75
2023/06/02 05:24:47;;;;;;;;;;;12.50;81.40;;;;;;5026688;28;20348;-74
2023/06/02 05:27:14;;;;;;;;;;;12.50;81.00;;;;;;5012952;28;19929;-74
2023/06/02 05:29:41;;;;;;;;;;;12.60;79.40;;;;;;5027641;28;19936;-76
2023/06/02 05:32:08;;;;;;;;;;;12.60;79.90;;;;;;5020294;28;19929;-75
2023/06/02 05:34:35;;;;;;;;;;;12.70;79.20;;;;;;5025024;28;19933;-75
2023/06/02 05:37:02;;;;;;;;;;;12.70;78.20;;;;;;5020730;28;19969;-75
2023/06/02 05:39:29;;;;;;;;;;;12.70;78.10;;;;;;5020503;28;19944;-76
2023/06/02 05:41:56;;;;;;;;;;;12.80;78.30;;;;;;5016748;28;19933;-76
2023/06/02 05:44:22;;;;;;;;;;;12.80;77.40;;;;;;5020478;28;19929;-75
2023/06/02 05:46:49;;;;;;;;;;;12.80;77.20;;;;;;5016408;28;19991;-75
2023/06/02 05:49:16;;;;;;;;;;;12.70;78.30;;;;;;5016845;28;19960;-75
2023/06/02 05:51:43;;;;;;;;;;;12.80;78.20;;;;;;5021182;28;19976;-75
2023/06/02 05:54:10;;;;;;;;;;;12.90;77.60;;;;;;5027823;28;19929;-75
2023/06/02 05:56:36;;;;;;;;;;;12.90;76.80;;;;;;5024385;28;20032;-76
2023/06/02 05:59:04;;;;;;;;;;;12.90;75.80;;;;;;5017308;28;20028;-76
2023/06/02 06:01:31;;;;;;;;;;;13.00;75.80;;;;;;5013871;28;20409;-76
2023/06/02 06:03:57;;;;;;;;;;;13.10;75.40;;;;;;5017637;28;20396;-76
2023/06/02 06:06:24;;;;;;;;;;;13.20;74.70;;;;;;5019312;28;19929;-79
2023/06/02 06:08:51;;;;;;;;;;;13.30;74.70;;;;;;5030401;28;19986;-74
2023/06/02 06:11:18;;;;;;;;;;;13.30;74.00;;;;;;5015818;28;20394;-76
2023/06/02 06:13:45;;;;;;;;;;;13.50;74.50;;;;;;5024398;28;19994;-75
2023/06/02 06:16:11;;;;;;;;;;;13.70;73.20;;;;;;5022017;28;19929;-75
2023/06/02 06:18:38;;;;;;;;;;;13.70;71.20;;;;;;5022011;28;20329;-75
2023/06/02 06:21:05;;;;;;;;;;;13.90;70.50;;;;;;5015192;28;19968;-76
2023/06/02 06:23:32;;;;;;;;;;;13.90;70.50;;;;;;5014100;28;19929;-80
2023/06/02 06:25:58;;;;;;;;;;;14.00;69.90;;;;;;5024108;28;19929;-74
2023/06/02 06:28:25;;;;;;;;;;;14.20;68.90;;;;;;5022438;28;19998;-74
2023/06/02 06:30:52;;;;;;;;;;;14.30;68.00;;;;;;5026730;28;20301;-75
2023/06/02 06:33:18;;;;;;;;;;;14.50;66.70;;;;;;5022608;28;19929;-74
2023/06/02 06:35:45;;;;;;;;;;;14.50;66.80;;;;;;5019359;28;20347;-75
2023/06/02 06:38:12;;;;;;;;;;;14.70;63.80;;;;;;5012053;28;20031;-75
2023/06/02 06:40:39;;;;;;;;;;;14.70;62.60;;;;;;5024997;28;19935;-75
2023/06/02 06:43:06;;;;;;;;;;;14.90;60.00;;;;;;5017176;28;20476;-74
2023/06/02 06:45:49;;;;;;;;;;;15.10;60.10;;;;;;5018094;28;19936;-75
2023/06/02 06:48:16;;;;;;;;;;;15.30;60.90;;;;;;5016484;28;20045;-74
2023/06/02 06:50:43;;;;;;;;;;;15.50;59.00;;;;;;5029762;28;20024;-75
2023/06/02 06:53:11;;;;;;;;;;;15.80;57.40;;;;;;5017598;28;19929;-74
2023/06/02 06:55:38;;;;;;;;;;;16.00;55.10;;;;;;5008793;28;19929;-74
2023/06/02 06:58:04;;;;;;;;;;;16.10;53.90;;;;;;5018790;28;19929;-75
2023/06/02 07:00:31;;;;;;;;;;;16.20;53.80;;;;;;5017342;28;20687;-77
2023/06/02 07:02:58;;;;;;;;;;;16.60;54.30;;;;;;5021172;28;20380;-76
2023/06/02 07:05:25;;;;;;;;;;;16.90;52.30;;;;;;5026234;28;19936;-76
2023/06/02 07:07:52;;;;;;;;;;;17.10;52.20;;;;;;5021752;28;19929;-75
2023/06/02 07:10:19;;;;;;;;;;;17.30;50.30;;;;;;5028814;28;20052;-76
2023/06/02 07:12:46;;;;;;;;;;;17.50;48.90;;;;;;5017310;28;19929;-76
2023/06/02 07:15:12;;;;;;;;;;;17.60;49.60;;;;;;5014380;28;20343;-75
2023/06/02 07:17:42;;;;;;;;;;;17.90;49.00;;;;;;5021227;28;20239;-75
2023/06/02 07:20:10;;;;;;;;;;;17.90;49.90;;;;;;5020609;28;19928;-75
2023/06/02 07:22:37;;;;;;;;;;;18.10;49.80;;;;;;5022582;28;19930;-75
2023/06/02 07:25:04;;;;;;;;;;;18.20;49.90;;;;;;5009049;28;20024;-76
2023/06/02 07:27:32;;;;;;;;;;;18.30;50.10;;;;;;5008686;28;20468;-76
2023/06/02 07:29:59;;;;;;;;;;;18.50;48.40;;;;;;5032002;28;19939;-75
2023/06/02 07:32:25;;;;;;;;;;;18.50;48.80;;;;;;5022922;28;19937;-75
2023/06/02 07:34:52;;;;;;;;;;;18.70;48.80;;;;;;5008463;28;19980;-74
2023/06/02 07:37:19;;;;;;;;;;;18.90;48.00;;;;;;5018753;28;19932;-75
2023/06/02 07:39:46;;;;;;;;;;;19.00;48.30;;;;;;5014717;28;19929;-75
2023/06/02 07:42:13;;;;;;;;;;;19.10;45.60;;;;;;5020207;28;20688;-75
2023/06/02 07:44:39;;;;;;;;;;;19.10;46.10;;;;;;5026206;28;19929;-75
2023/06/02 07:47:07;;;;;;;;;;;19.20;45.30;;;;;;5012466;28;19999;-75
2023/06/02 07:49:34;;;;;;;;;;;19.20;43.50;;;;;;5014138;28;19929;-75
2023/06/02 07:52:01;;;;;;;;;;;19.00;44.70;;;;;;5014743;28;19929;-75
2023/06/02 07:54:28;;;;;;;;;;;19.10;43.70;;;;;;5021193;28;19935;-74
2023/06/02 07:56:54;;;;;;;;;;;19.30;42.30;;;;;;5023127;28;20405;-74
2023/06/02 07:59:23;;;;;;;;;;;19.40;43.20;;;;;;5024137;23;19965;-74
2023/06/02 08:01:50;;;;;;;;;;;19.70;43.50;;;;;;5018428;28;19988;-74
2023/06/02 08:04:17;;;;;;;;;;;19.90;42.40;;;;;;5022072;28;19929;-74
2023/06/02 08:06:44;;;;;;;;;;;20.10;42.90;;;;;;5014676;28;19936;-75
2023/06/02 08:09:11;;;;;;;;;;;19.90;44.60;;;;;;5021603;28;19936;-75
2023/06/02 08:11:39;;;;;;;;;;;20.00;44.60;;;;;;5017094;28;20308;-74
2023/06/02 08:14:06;;;;;;;;;;;20.40;44.00;;;;;;5023478;28;19944;-74
2023/06/02 08:16:33;;;;;;;;;;;20.40;43.80;;;;;;5014472;28;19982;-74
2023/06/02 08:19:20;;;;;;;;;;;20.80;42.60;;;;;;5024026;28;20571;-75
2023/06/02 08:21:47;;;;;;;;;;;20.60;40.80;;;;;;5027874;28;19956;-75
2023/06/02 08:24:15;;;;;;;;;;;20.60;40.80;;;;;;5020786;28;19935;-74
2023/06/02 08:26:42;;;;;;;;;;;20.60;40.70;;;;;;5024673;28;19929;-75
2023/06/02 08:29:09;;;;;;;;;;;20.50;40.10;;;;;;5019923;28;20382;-77
2023/06/02 08:31:36;;;;;;;;;;;20.50;41.30;;;;;;5017701;28;19980;-75
2023/06/02 08:34:03;;;;;;;;;;;20.90;40.80;;;;;;5018994;28;19936;-74
2023/06/02 08:36:30;;;;;;;;;;;20.80;41.20;;;;;;5003129;28;20222;-75
2023/06/02 08:38:57;;;;;;;;;;;21.20;40.50;;;;;;5010511;28;19980;-75
2023/06/02 08:41:26;;;;;;;;;;;21.40;40.50;;;;;;5004335;28;20477;-75
2023/06/02 08:43:52;;;;;;;;;;;21.30;39.60;;;;;;5009893;28;19933;-75
2023/06/02 08:46:19;;;;;;;;;;;20.90;39.50;;;;;;5018297;28;20043;-75
2023/06/02 08:48:47;;;;;;;;;;;21.00;41.10;;;;;;5015496;28;19933;-75
2023/06/02 08:51:18;;;;;;;;;;;21.30;40.30;;;;;;5021229;28;20016;-75
2023/06/02 08:53:46;;;;;;;;;;;21.20;41.10;;;;;;5021333;28;19929;-75
2023/06/02 08:56:14;;;;;;;;;;;21.20;40.30;;;;;;5026106;28;19933;-74
2023/06/02 08:58:45;;;;;;;;;;;21.20;40.10;;;;;;5020580;28;19929;-74
2023/06/02 09:01:12;;;;;;;;;;;21.60;40.50;;;;;;5013990;28;19957;-74
2023/06/02 09:03:39;;;;;;;;;;;22.00;40.80;;;;;;5015938;28;19977;-74
2023/06/02 09:06:16;;;;;;;;;;;22.00;40.70;;;;;;5018866;28;19933;-74
2023/06/02 09:08:59;;;;;;;;;;;22.20;39.00;;;;;;5005071;28;20032;-74
2023/06/02 09:11:26;;;;;;;;;;;22.40;39.60;;;;;;5016375;28;19933;-74
2023/06/02 09:13:53;;;;;;;;;;;22.60;39.00;;;;;;5022214;28;19936;-74
2023/06/02 09:16:21;;;;;;;;;;;22.70;39.00;;;;;;5020995;28;20012;-74
2023/06/02 09:18:56;;;;;;;;;;;22.80;37.60;;;;;;5018075;28;19987;-74
2023/06/02 09:21:26;;;;;;;;;;;22.80;38.40;;;;;;5022761;28;19931;-74
2023/06/02 09:23:54;;;;;;;;;;;23.00;37.30;;;;;;5011292;28;20301;-74
2023/06/02 09:26:46;;;;;;;;;;;23.20;37.80;;;;;;5019167;28;20012;-74
2023/06/02 09:29:16;;;;;;;;;;;23.20;37.60;;;;;;5009271;28;19930;-73
2023/06/02 09:31:58;;;;;;;;;;;23.00;37.60;;;;;;5009461;28;20402;-74
2023/06/02 09:34:33;;;;;;;;;;;23.10;37.00;;;;;;5011590;28;20024;-74
2023/06/02 09:37:06;;;;;;;;;;;23.40;36.30;;;;;;5017970;28;20326;-74
2023/06/02 09:39:34;;;;;;;;;;;23.60;36.10;;;;;;5013941;28;19980;-74
2023/06/02 09:42:01;;;;;;;;;;;23.80;36.30;;;;;;5009554;28;20028;-73
2023/06/02 09:44:28;;;;;;;;;;;23.80;35.90;;;;;;5019036;28;19960;-74
2023/06/02 09:46:55;;;;;;;;;;;23.80;35.80;;;;;;5010322;28;19930;-73
2023/06/02 09:49:22;;;;;;;;;;;23.90;35.10;;;;;;5021181;28;19933;-74
2023/06/02 09:51:50;;;;;;;;;;;24.00;35.00;;;;;;5015387;28;20244;-74
2023/06/02 09:54:17;;;;;;;;;;;24.10;35.00;;;;;;5019533;28;19933;-73
2023/06/02 09:56:45;;;;;;;;;;;24.10;35.00;;;;;;5005573;28;20445;-74
2023/06/02 09:59:11;;;;;;;;;;;24.00;34.70;;;;;;5019492;28;20011;-74
2023/06/02 10:01:38;;;;;;;;;;;24.00;34.70;;;;;;5022922;28;20623;-73
2023/06/02 10:04:06;;;;;;;;;;;24.10;34.50;;;;;;5018825;28;19929;-73
2023/06/02 10:06:33;;;;;;;;;;;24.30;34.80;;;;;;5015099;28;19960;-74
2023/06/02 10:09:02;;;;;;;;;;;24.50;34.20;;;;;;5019665;28;20030;-74
2023/06/02 10:11:43;;;;;;;;;;;24.50;33.50;;;;;;5022091;28;20369;-74
2023/06/02 10:14:12;;;;;;;;;;;24.40;33.30;;;;;;5022072;28;19929;-73
2023/06/02 10:16:45;;;;;;;;;;;24.50;33.80;;;;;;5018264;28;19976;-73
2023/06/02 10:19:18;;;;;;;;;;;24.50;32.80;;;;;;5021250;28;20370;-74
2023/06/02 10:22:04;;;;;;;;;;;24.30;33.80;;;;;;5026042;28;19964;-73
2023/06/02 10:24:40;;;;;;;;;;;24.70;33.40;;;;;;5018779;28;19936;-73
2023/06/02 10:27:26;;;;;;;;;;;24.60;33.20;;;;;;5036105;28;20272;-75
2023/06/02 10:29:54;;;;;;;;;;;24.80;33.10;;;;;;5024032;28;19948;-74
2023/06/02 10:32:24;;;;;;;;;;;24.90;33.50;;;;;;5014547;28;20522;-73
2023/06/02 10:34:56;;;;;;;;;;;24.80;32.10;;;;;;5019117;28;19932;-74
2023/06/02 10:37:23;;;;;;;;;;;24.70;33.20;;;;;;5024439;28;19932;-72
2023/06/02 10:39:52;;;;;;;;;;;24.80;33.10;;;;;;5012973;28;19930;-73
2023/06/02 10:42:20;;;;;;;;;;;24.90;33.40;;;;;;5026178;28;19945;-73
2023/06/02 10:44:51;;;;;;;;;;;24.90;33.40;;;;;;5024688;28;19929;-72
2023/06/02 10:47:18;;;;;;;;;;;25.20;32.80;;;;;;5024830;28;19925;-73
2023/06/02 10:49:57;;;;;;;;;;;25.00;33.00;;;;;;5026143;28;19992;-72
2023/06/02 10:52:25;;;;;;;;;;;24.70;32.90;;;;;;5019035;28;19935;-73
2023/06/02 10:55:06;;;;;;;;;;;25.20;32.60;;;;;;5009918;28;20015;-72
2023/06/02 10:57:53;;;;;;;;;;;25.30;32.90;;;;;;5010208;28;19929;-72
2023/06/02 11:00:29;;;;;;;;;;;25.50;32.50;;;;;;5014453;28;19979;-73
2023/06/02 11:02:56;;;;;;;;;;;25.20;31.40;;;;;;5022181;28;19929;-72
2023/06/02 11:05:27;;;;;;;;;;;24.70;31.20;;;;;;5027408;28;20676;-73
2023/06/02 11:08:15;;;;;;;;;;;24.70;32.00;;;;;;5020750;28;19930;-73
2023/06/02 11:10:46;;;;;;;;;;;25.00;31.40;;;;;;5018768;28;19944;-72
2023/06/02 11:13:13;;;;;;;;;;;25.10;31.70;;;;;;5006453;28;19960;-73
2023/06/02 11:15:57;;;;;;;;;;;25.40;31.20;;;;;;5016107;28;20424;-72
2023/06/02 11:18:33;;;;;;;;;;;25.50;31.00;;;;;;5018305;28;19929;-73
2023/06/02 11:21:01;;;;;;;;;;;25.20;30.50;;;;;;5023937;28;19935;-73
2023/06/02 11:23:29;;;;;;;;;;;25.10;30.90;;;;;;5015332;28;20011;-73
2023/06/02 11:25:58;;;;;;;;;;;25.40;29.30;;;;;;5014172;28;20048;-73
2023/06/02 11:28:25;;;;;;;;;;;25.10;30.60;;;;;;5013819;28;20006;-73
2023/06/02 11:31:04;;;;;;;;;;;24.90;30.10;;;;;;5015156;28;19964;-73
2023/06/02 11:33:35;;;;;;;;;;;25.10;29.70;;;;;;5012571;28;19949;-73
2023/06/02 11:36:02;;;;;;;;;;;24.80;30.60;;;;;;5018214;28;19935;-72
2023/06/02 11:38:31;;;;;;;;;;;25.10;30.70;;;;;;5012500;28;19933;-72
2023/06/02 11:41:10;;;;;;;;;;;25.00;30.40;;;;;;5014222;28;20331;-72
2023/06/02 11:43:40;;;;;;;;;;;25.00;30.60;;;;;;5004103;28;20702;-72
2023/06/02 11:46:08;;;;;;;;;;;25.00;32.00;;;;;;5011691;28;21280;-72
2023/06/02 11:48:38;;;;;;;;;;;25.10;31.40;;;;;;5019147;28;20389;-72
2023/06/02 11:51:06;;;;;;;;;;;25.00;30.50;;;;;;5022078;28;19934;-75
2023/06/02 11:53:33;;;;;;;;;;;25.10;30.30;;;;;;5014474;28;19929;-74
2023/06/02 11:56:00;;;;;;;;;;;24.90;29.90;;;;;;5017483;28;19972;-74
2023/06/02 11:58:28;;;;;;;;;;;25.10;31.50;;;;;;5011984;28;19939;-75
2023/06/02 12:01:09;;;;;;;;;;;25.00;30.90;;;;;;5018766;28;19929;-73
2023/06/02 12:03:36;;;;;;;;;;;25.00;31.30;;;;;;5019584;28;20031;-72
2023/06/02 12:06:07;;;;;;;;;;;24.80;31.20;;;;;;5017361;28;19935;-72
2023/06/02 12:08:35;;;;;;;;;;;24.90;31.30;;;;;;5017688;28;19976;-74
2023/06/02 12:11:01;;;;;;;;;;;25.10;30.90;;;;;;5015480;28;19933;-72
2023/06/02 12:13:30;;;;;;;;;;;25.00;32.20;;;;;;5012522;28;20390;-72
2023/06/02 12:16:15;;;;;;;;;;;25.00;31.50;;;;;;5004659;28;19933;-72
2023/06/02 12:18:42;;;;;;;;;;;24.80;32.00;;;;;;5013484;28;19972;-72
2023/06/02 12:21:19;;;;;;;;;;;25.00;31.50;;;;;;5024058;28;20511;-72
2023/06/02 12:23:50;;;;;;;;;;;25.20;32.50;;;;;;5016873;28;20432;-74
2023/06/02 12:26:17;;;;;;;;;;;25.40;30.70;;;;;;5020507;28;20008;-74
2023/06/02 12:28:44;;;;;;;;;;;24.20;29.60;;;;;;5016621;28;19940;-73
2023/06/02 12:31:11;;;;;;;;;;;23.90;31.90;;;;;;5021361;28;19969;-73
2023/06/02 12:33:40;;;;;;;;;;;23.60;32.30;;;;;;5018467;28;20537;-75
2023/06/02 12:36:09;;;;;;;;;;;23.90;33.90;;;;;;5015823;28;19925;-73
2023/06/02 12:38:36;;;;;;;;;;;24.00;30.60;;;;;;5018825;28;19939;-73
2023/06/02 12:41:03;;;;;;;;;;;24.10;32.30;;;;;;5021406;28;20048;-73
2023/06/02 12:43:30;;;;;;;;;;;24.30;31.80;;;;;;5023516;28;19990;-73
2023/06/02 12:45:57;;;;;;;;;;;24.20;32.60;;;;;;5023254;28;19972;-73
2023/06/02 12:48:24;;;;;;;;;;;24.50;32.40;;;;;;5017758;28;19960;-73
2023/06/02 12:50:50;;;;;;;;;;;24.60;31.50;;;;;;5020764;28;19937;-74
2023/06/02 12:53:17;;;;;;;;;;;24.20;31.90;;;;;;5005501;28;19929;-73
2023/06/02 12:55:44;;;;;;;;;;;24.00;32.50;;;;;;5015639;28;19969;-74
2023/06/02 12:58:11;;;;;;;;;;;24.10;31.70;;;;;;5004418;28;19933;-73
2023/06/02 13:00:39;;;;;;;;;;;24.00;30.50;;;;;;5011649;28;20429;-73
2023/06/02 13:03:06;;;;;;;;;;;23.40;31.70;;;;;;5006364;28;20032;-73
2023/06/02 13:05:35;;;;;;;;;;;23.20;32.70;;;;;;5010618;28;20378;-74
2023/06/02 13:08:02;;;;;;;;;;;23.30;33.20;;;;;;5023036;28;19929;-74
2023/06/02 13:10:28;;;;;;;;;;;23.20;32.50;;;;;;5010548;28;20444;-74
2023/06/02 13:12:55;;;;;;;;;;;23.50;31.10;;;;;;5011741;28;20310;-74
2023/06/02 13:15:22;;;;;;;;;;;23.30;31.60;;;;;;5013710;28;19929;-74
2023/06/02 13:17:50;;;;;;;;;;;23.30;32.30;;;;;;5020580;28;19933;-74
2023/06/02 13:20:17;;;;;;;;;;;23.40;32.20;;;;;;5014957;28;19929;-74
2023/06/02 13:22:43;;;;;;;;;;;23.60;31.80;;;;;;5009290;28;19929;-74
2023/06/02 13:25:10;;;;;;;;;;;23.80;31.70;;;;;;5008086;28;19929;-74
2023/06/02 13:27:37;;;;;;;;;;;23.80;31.40;;;;;;5007217;28;19936;-74
2023/06/02 13:30:09;;;;;;;;;;;23.50;32.00;;;;;;5006569;28;19934;-74
2023/06/02 13:32:35;;;;;;;;;;;23.20;31.30;;;;;;5006766;28;20382;-74
2023/06/02 13:35:02;;;;;;;;;;;22.90;30.90;;;;;;5010170;28;20020;-73
2023/06/02 13:37:29;;;;;;;;;;;22.80;31.70;;;;;;5008482;28;20008;-76
2023/06/02 13:39:56;;;;;;;;;;;22.60;32.60;;;;;;5014888;28;20386;-73
2023/06/02 13:42:22;;;;;;;;;;;22.60;31.50;;;;;;5012588;28;19929;-75
2023/06/02 13:44:49;;;;;;;;;;;22.40;32.00;;;;;;5024802;28;19991;-76
2023/06/02 13:47:16;;;;;;;;;;;22.50;34.60;;;;;;5040536;28;20246;-74
2023/06/02 13:49:44;;;;;;;;;;;22.80;34.40;;;;;;5025117;28;19929;-72
2023/06/02 13:52:11;;;;;;;;;;;23.20;32.90;;;;;;5014347;28;20374;-73
2023/06/02 13:54:38;;;;;;;;;;;23.30;33.10;;;;;;5012491;28;20343;-72
2023/06/02 13:57:05;;;;;;;;;;;23.20;33.30;;;;;;5021141;28;19936;-73
2023/06/02 13:59:32;;;;;;;;;;;23.40;33.40;;;;;;5022839;28;19929;-73
2023/06/02 14:01:59;;;;;;;;;;;23.50;32.70;;;;;;5016175;28;20691;-73
2023/06/02 14:04:26;;;;;;;;;;;23.60;32.80;;;;;;5013943;28;20016;-72
2023/06/02 14:06:53;;;;;;;;;;;23.90;32.00;;;;;;5016756;28;19929;-73
2023/06/02 14:09:20;;;;;;;;;;;24.00;31.70;;;;;;5021361;28;19964;-72
2023/06/02 14:11:47;;;;;;;;;;;23.90;31.70;;;;;;5021767;28;19929;-73
2023/06/02 14:14:14;;;;;;;;;;;23.90;31.90;;;;;;5022238;28;19982;-72
2023/06/02 14:16:41;;;;;;;;;;;23.80;32.00;;;;;;5020133;28;20017;-73
2023/06/02 14:19:08;;;;;;;;;;;23.90;32.30;;;;;;5016919;28;19933;-71
2023/06/02 14:21:35;;;;;;;;;;;23.90;31.90;;;;;;5020275;28;19929;-73
2023/06/02 14:24:02;;;;;;;;;;;23.70;31.30;;;;;;5013187;28;19929;-72
2023/06/02 14:26:29;;;;;;;;;;;23.50;31.90;;;;;;5017386;28;20345;-72